sensor_id;sensor_type;location;lat;lon;timestamp;temperature;humidity
23081;DHT22;72373;50.562;8.498;2023-10-13T00:00:34;15.50;99.90
23081;DHT22;72373;50.562;8.498;2023-10-13T00:03:09;15.50;99.90
23081;DHT22;72373;50.562;8.498;2023-10-13T00:05:44;15.50;99.90
23081;DHT22;72373;50.562;8.498;2023-10-13T00:08:10;15.60;99.90
23081;DHT22;72373;50.562;8.498;2023-10-13T00:10:36;15.50;99.90
23081;DHT22;72373;50.562;8.498;2023-10-13T00:13:02;15.50;99.90
23081;DHT22;72373;50.562;8.498;2023-10-13T00:15:45;15.50;99.90
23081;DHT22;72373;50.562;8.498;2023-10-13T00:18:25;15.50;99.90
23081;DHT22;72373;50.562;8.498;2023-10-13T00:21:02;15.40;99.90
23081;DHT22;72373;50.562;8.498;2023-10-13T00:24:00;15.40;99.90
23081;DHT22;72373;50.562;8.498;2023-10-13T00:26:28;15.40;99.90
23081;DHT22;72373;50.562;8.498;2023-10-13T00:28:56;15.40;99.90
23081;DHT22;72373;50.562;8.498;2023-10-13T00:31:41;15.40;99.90
23081;DHT22;72373;50.562;8.498;2023-10-13T00:34:11;15.40;99.90
23081;DHT22;72373;50.562;8.498;2023-10-13T00:36:38;15.10;99.90
23081;DHT22;72373;50.562;8.498;2023-10-13T00:39:16;15.40;99.90
23081;DHT22;72373;50.562;8.498;2023-10-13T00:41:43;15.40;99.90
23081;DHT22;72373;50.562;8.498;2023-10-13T00:44:22;15.40;99.90
23081;DHT22;72373;50.562;8.498;2023-10-13T00:47:06;15.40;99.90
23081;DHT22;72373;50.562;8.498;2023-10-13T00:49:35;15.40;99.90
23081;DHT22;72373;50.562;8.498;2023-10-13T00:52:05;15.50;99.90
23081;DHT22;72373;50.562;8.498;2023-10-13T00:54:32;15.30;99.90
23081;DHT22;72373;50.562;8.498;2023-10-13T00:57:01;15.40;99.90
23081;DHT22;72373;50.562;8.498;2023-10-13T00:59:33;15.40;99.90
23081;DHT22;72373;50.562;8.498;2023-10-13T01:02:02;15.40;99.90
23081;DHT22;72373;50.562;8.498;2023-10-13T01:04:48;15.40;99.90
23081;DHT22;72373;50.562;8.498;2023-10-13T01:07:14;15.40;99.90
23081;DHT22;72373;50.562;8.498;2023-10-13T01:09:44;15.40;99.90
23081;DHT22;72373;50.562;8.498;2023-10-13T01:12:12;15.40;99.90
23081;DHT22;72373;50.562;8.498;2023-10-13T01:14:37;15.40;99.90
23081;DHT22;72373;50.562;8.498;2023-10-13T01:17:03;15.40;99.90
23081;DHT22;72373;50.562;8.498;2023-10-13T01:19:29;15.40;99.90
23081;DHT22;72373;50.562;8.498;2023-10-13T01:21:55;15.40;99.90
23081;DHT22;72373;50.562;8.498;2023-10-13T01:24:30;15.40;99.90
23081;DHT22;72373;50.562;8.498;2023-10-13T01:27:05;15.50;99.90
23081;DHT22;72373;50.562;8.498;2023-10-13T01:29:45;15.50;99.90
23081;DHT22;72373;50.562;8.498;2023-10-13T01:32:18;15.50;99.90
23081;DHT22;72373;50.562;8.498;2023-10-13T01:37:14;15.50;99.90
23081;DHT22;72373;50.562;8.498;2023-10-13T01:39:42;15.50;99.90
23081;DHT22;72373;50.562;8.498;2023-10-13T01:42:07;15.40;99.90
23081;DHT22;72373;50.562;8.498;2023-10-13T01:44:33;15.40;99.90
23081;DHT22;72373;50.562;8.498;2023-10-13T01:47:00;15.40;99.90
23081;DHT22;72373;50.562;8.498;2023-10-13T01:49:32;15.40;99.90
23081;DHT22;72373;50.562;8.498;2023-10-13T01:52:06;15.40;99.90
23081;DHT22;72373;50.562;8.498;2023-10-13T01:54:32;15.30;99.90
23081;DHT22;72373;50.562;8.498;2023-10-13T01:56:58;15.30;99.90
23081;DHT22;72373;50.562;8.498;2023-10-13T01:59:25;15.30;99.90
23081;DHT22;72373;50.562;8.498;2023-10-13T02:01:52;15.30;99.90
23081;DHT22;72373;50.562;8.498;2023-10-13T02:04:21;15.20;99.90
23081;DHT22;72373;50.562;8.498;2023-10-13T02:06:46;15.30;99.90
23081;DHT22;72373;50.562;8.498;2023-10-13T02:09:12;15.20;99.90
23081;DHT22;72373;50.562;8.498;2023-10-13T02:11:42;15.30;99.90
23081;DHT22;72373;50.562;8.498;2023-10-13T02:14:10;15.20;99.90
23081;DHT22;72373;50.562;8.498;2023-10-13T02:16:37;15.10;99.90
23081;DHT22;72373;50.562;8.498;2023-10-13T02:19:03;15.30;99.90
23081;DHT22;72373;50.562;8.498;2023-10-13T02:21:34;15.20;99.90
23081;DHT22;72373;50.562;8.498;2023-10-13T02:24:07;15.20;99.90
23081;DHT22;72373;50.562;8.498;2023-10-13T02:26:38;15.20;99.90
23081;DHT22;72373;50.562;8.498;2023-10-13T02:29:06;15.10;99.90
23081;DHT22;72373;50.562;8.498;2023-10-13T02:31:43;15.20;99.90
23081;DHT22;72373;50.562;8.498;2023-10-13T02:34:20;15.20;99.90
23081;DHT22;72373;50.562;8.498;2023-10-13T02:36:48;15.20;99.90
23081;DHT22;72373;50.562;8.498;2023-10-13T02:39:18;15.10;99.90
23081;DHT22;72373;50.562;8.498;2023-10-13T02:41:51;15.10;99.90
23081;DHT22;72373;50.562;8.498;2023-10-13T02:44:17;15.20;99.90
23081;DHT22;72373;50.562;8.498;2023-10-13T02:46:52;15.10;99.90
23081;DHT22;72373;50.562;8.498;2023-10-13T02:49:21;15.10;99.90
23081;DHT22;72373;50.562;8.498;2023-10-13T02:51:47;15.10;99.90
23081;DHT22;72373;50.562;8.498;2023-10-13T02:54:12;15.20;99.90
23081;DHT22;72373;50.562;8.498;2023-10-13T02:56:44;15.20;99.90
23081;DHT22;72373;50.562;8.498;2023-10-13T02:59:26;15.20;99.90
23081;DHT22;72373;50.562;8.498;2023-10-13T03:02:06;15.20;99.90
23081;DHT22;72373;50.562;8.498;2023-10-13T03:04:57;15.20;99.90
23081;DHT22;72373;50.562;8.498;2023-10-13T03:07:33;15.20;99.90
23081;DHT22;72373;50.562;8.498;2023-10-13T03:10:02;15.30;99.90
23081;DHT22;72373;50.562;8.498;2023-10-13T03:12:42;15.30;99.90
23081;DHT22;72373;50.562;8.498;2023-10-13T03:15:13;15.30;99.90
23081;DHT22;72373;50.562;8.498;2023-10-13T03:17:55;15.30;99.90
23081;DHT22;72373;50.562;8.498;2023-10-13T03:20:24;15.30;99.90
23081;DHT22;72373;50.562;8.498;2023-10-13T03:22:55;15.20;99.90
23081;DHT22;72373;50.562;8.498;2023-10-13T03:27:50;15.20;99.90
23081;DHT22;72373;50.562;8.498;2023-10-13T03:30:16;15.20;99.90
23081;DHT22;72373;50.562;8.498;2023-10-13T03:32:42;15.20;99.90
23081;DHT22;72373;50.562;8.498;2023-10-13T03:35:19;15.10;99.90
23081;DHT22;72373;50.562;8.498;2023-10-13T03:37:51;15.10;99.90
23081;DHT22;72373;50.562;8.498;2023-10-13T03:40:17;15.10;99.90
23081;DHT22;72373;50.562;8.498;2023-10-13T03:45:33;15.10;99.90
23081;DHT22;72373;50.562;8.498;2023-10-13T03:48:10;15.10;99.90
23081;DHT22;72373;50.562;8.498;2023-10-13T03:50:38;15.10;99.90
23081;DHT22;72373;50.562;8.498;2023-10-13T03:53:13;15.10;99.90
23081;DHT22;72373;50.562;8.498;2023-10-13T03:55:39;15.10;99.90
23081;DHT22;72373;50.562;8.498;2023-10-13T03:58:05;15.10;99.90
23081;DHT22;72373;50.562;8.498;2023-10-13T04:00:32;15.10;99.90
23081;DHT22;72373;50.562;8.498;2023-10-13T04:02:58;15.10;99.90
23081;DHT22;72373;50.562;8.498;2023-10-13T04:05:41;15.10;99.90
23081;DHT22;72373;50.562;8.498;2023-10-13T04:08:12;15.10;99.90
23081;DHT22;72373;50.562;8.498;2023-10-13T04:10:54;15.10;99.90
23081;DHT22;72373;50.562;8.498;2023-10-13T04:13:20;15.10;99.90
23081;DHT22;72373;50.562;8.498;2023-10-13T04:16:07;15.10;99.90
23081;DHT22;72373;50.562;8.498;2023-10-13T04:18:51;15.20;99.90
23081;DHT22;72373;50.562;8.498;2023-10-13T04:21:21;15.20;99.90
23081;DHT22;72373;50.562;8.498;2023-10-13T04:24:12;15.20;99.90
23081;DHT22;72373;50.562;8.498;2023-10-13T04:26:43;15.20;99.90
23081;DHT22;72373;50.562;8.498;2023-10-13T04:29:28;15.20;99.90
23081;DHT22;72373;50.562;8.498;2023-10-13T04:32:15;15.20;99.90
23081;DHT22;72373;50.562;8.498;2023-10-13T04:34:54;15.40;99.90
23081;DHT22;72373;50.562;8.498;2023-10-13T04:37:24;15.30;99.90
23081;DHT22;72373;50.562;8.498;2023-10-13T04:40:13;15.20;99.90
23081;DHT22;72373;50.562;8.498;2023-10-13T04:42:40;15.20;99.90
23081;DHT22;72373;50.562;8.498;2023-10-13T04:45:16;15.20;99.90
23081;DHT22;72373;50.562;8.498;2023-10-13T04:48:02;15.20;99.90
23081;DHT22;72373;50.562;8.498;2023-10-13T04:50:59;15.30;99.90
23081;DHT22;72373;50.562;8.498;2023-10-13T04:53:47;15.30;99.90
23081;DHT22;72373;50.562;8.498;2023-10-13T04:56:38;15.00;99.90
23081;DHT22;72373;50.562;8.498;2023-10-13T04:59:06;15.30;99.90
23081;DHT22;72373;50.562;8.498;2023-10-13T05:02:01;15.30;99.90
23081;DHT22;72373;50.562;8.498;2023-10-13T05:04:46;15.40;99.90
23081;DHT22;72373;50.562;8.498;2023-10-13T05:07:30;15.30;99.90
23081;DHT22;72373;50.562;8.498;2023-10-13T05:10:14;15.40;99.90
23081;DHT22;72373;50.562;8.498;2023-10-13T05:12:58;15.40;99.90
23081;DHT22;72373;50.562;8.498;2023-10-13T05:15:47;15.40;99.90
23081;DHT22;72373;50.562;8.498;2023-10-13T05:18:32;15.70;99.90
23081;DHT22;72373;50.562;8.498;2023-10-13T05:21:17;15.40;99.90
23081;DHT22;72373;50.562;8.498;2023-10-13T05:24:01;15.50;99.90
23081;DHT22;72373;50.562;8.498;2023-10-13T05:26:46;15.40;99.90
23081;DHT22;72373;50.562;8.498;2023-10-13T05:29:30;15.40;99.90
23081;DHT22;72373;50.562;8.498;2023-10-13T05:32:14;15.50;99.90
23081;DHT22;72373;50.562;8.498;2023-10-13T05:34:58;15.50;99.90
23081;DHT22;72373;50.562;8.498;2023-10-13T05:37:42;15.50;99.90
23081;DHT22;72373;50.562;8.498;2023-10-13T05:40:26;15.50;99.90
23081;DHT22;72373;50.562;8.498;2023-10-13T05:43:10;15.50;99.90
23081;DHT22;72373;50.562;8.498;2023-10-13T05:46:01;15.50;99.90
23081;DHT22;72373;50.562;8.498;2023-10-13T05:48:45;15.50;99.90
23081;DHT22;72373;50.562;8.498;2023-10-13T05:51:26;15.50;99.90
23081;DHT22;72373;50.562;8.498;2023-10-13T05:54:02;15.50;99.90
23081;DHT22;72373;50.562;8.498;2023-10-13T05:56:47;15.50;99.90
23081;DHT22;72373;50.562;8.498;2023-10-13T05:59:32;15.50;99.90
23081;DHT22;72373;50.562;8.498;2023-10-13T06:02:17;15.50;99.90
23081;DHT22;72373;50.562;8.498;2023-10-13T06:05:05;15.60;99.90
23081;DHT22;72373;50.562;8.498;2023-10-13T06:07:50;15.60;99.90
23081;DHT22;72373;50.562;8.498;2023-10-13T06:10:34;15.60;99.90
23081;DHT22;72373;50.562;8.498;2023-10-13T06:13:19;15.70;99.90
23081;DHT22;72373;50.562;8.498;2023-10-13T06:16:10;15.70;99.90
23081;DHT22;72373;50.562;8.498;2023-10-13T06:18:55;15.80;99.90
23081;DHT22;72373;50.562;8.498;2023-10-13T06:21:40;15.80;99.90
23081;DHT22;72373;50.562;8.498;2023-10-13T06:24:24;15.80;99.90
23081;DHT22;72373;50.562;8.498;2023-10-13T06:27:09;15.80;99.90
23081;DHT22;72373;50.562;8.498;2023-10-13T06:29:53;15.80;99.90
23081;DHT22;72373;50.562;8.498;2023-10-13T06:32:19;15.90;99.90
23081;DHT22;72373;50.562;8.498;2023-10-13T06:34:45;15.90;99.90
23081;DHT22;72373;50.562;8.498;2023-10-13T06:37:12;15.90;99.90
23081;DHT22;72373;50.562;8.498;2023-10-13T06:40:00;16.00;99.90
23081;DHT22;72373;50.562;8.498;2023-10-13T06:42:31;15.90;99.90
23081;DHT22;72373;50.562;8.498;2023-10-13T06:45:00;16.00;99.90
23081;DHT22;72373;50.562;8.498;2023-10-13T06:47:28;16.00;99.90
23081;DHT22;72373;50.562;8.498;2023-10-13T06:49:54;16.00;99.90
23081;DHT22;72373;50.562;8.498;2023-10-13T06:52:22;16.00;99.90
23081;DHT22;72373;50.562;8.498;2023-10-13T06:54:51;16.10;99.90
23081;DHT22;72373;50.562;8.498;2023-10-13T06:57:17;16.10;99.90
23081;DHT22;72373;50.562;8.498;2023-10-13T06:59:48;16.10;99.90
23081;DHT22;72373;50.562;8.498;2023-10-13T07:02:14;16.20;99.90
23081;DHT22;72373;50.562;8.498;2023-10-13T07:04:49;16.60;99.90
23081;DHT22;72373;50.562;8.498;2023-10-13T07:07:28;16.30;99.90
23081;DHT22;72373;50.562;8.498;2023-10-13T07:09:54;16.30;99.90
23081;DHT22;72373;50.562;8.498;2023-10-13T07:12:23;16.40;99.90
23081;DHT22;72373;50.562;8.498;2023-10-13T07:14:51;16.40;99.90
23081;DHT22;72373;50.562;8.498;2023-10-13T07:17:18;16.40;99.90
23081;DHT22;72373;50.562;8.498;2023-10-13T07:19:54;16.40;99.90
23081;DHT22;72373;50.562;8.498;2023-10-13T07:22:22;16.50;99.90
23081;DHT22;72373;50.562;8.498;2023-10-13T07:24:50;16.60;99.90
23081;DHT22;72373;50.562;8.498;2023-10-13T07:27:20;16.60;99.90
23081;DHT22;72373;50.562;8.498;2023-10-13T07:29:53;16.70;99.90
23081;DHT22;72373;50.562;8.498;2023-10-13T07:32:32;16.60;99.90
23081;DHT22;72373;50.562;8.498;2023-10-13T07:34:59;16.70;99.90
23081;DHT22;72373;50.562;8.498;2023-10-13T07:37:35;16.80;99.90
23081;DHT22;72373;50.562;8.498;2023-10-13T07:40:00;16.80;99.90
23081;DHT22;72373;50.562;8.498;2023-10-13T07:42:26;16.80;99.90
23081;DHT22;72373;50.562;8.498;2023-10-13T07:45:05;16.90;99.90
23081;DHT22;72373;50.562;8.498;2023-10-13T07:47:31;16.90;99.90
23081;DHT22;72373;50.562;8.498;2023-10-13T07:49:58;16.90;99.90
23081;DHT22;72373;50.562;8.498;2023-10-13T07:52:24;16.90;99.90
23081;DHT22;72373;50.562;8.498;2023-10-13T07:54:52;17.00;99.90
23081;DHT22;72373;50.562;8.498;2023-10-13T07:57:40;17.00;99.90
23081;DHT22;72373;50.562;8.498;2023-10-13T08:00:21;17.30;99.90
23081;DHT22;72373;50.562;8.498;2023-10-13T08:03:06;17.00;99.90
23081;DHT22;72373;50.562;8.498;2023-10-13T08:05:52;17.00;99.90
23081;DHT22;72373;50.562;8.498;2023-10-13T08:08:30;17.00;99.90
23081;DHT22;72373;50.562;8.498;2023-10-13T08:11:04;17.10;99.90
23081;DHT22;72373;50.562;8.498;2023-10-13T08:13:44;17.20;99.90
23081;DHT22;72373;50.562;8.498;2023-10-13T08:18:49;17.30;99.90
23081;DHT22;72373;50.562;8.498;2023-10-13T08:21:16;17.50;99.90
23081;DHT22;72373;50.562;8.498;2023-10-13T08:23:45;17.70;99.90
23081;DHT22;72373;50.562;8.498;2023-10-13T08:26:21;17.90;99.90
23081;DHT22;72373;50.562;8.498;2023-10-13T08:29:02;17.80;99.90
23081;DHT22;72373;50.562;8.498;2023-10-13T08:31:46;18.00;99.90
23081;DHT22;72373;50.562;8.498;2023-10-13T08:34:31;18.30;99.90
23081;DHT22;72373;50.562;8.498;2023-10-13T08:37:11;18.40;99.90
23081;DHT22;72373;50.562;8.498;2023-10-13T08:39:57;18.60;99.90
23081;DHT22;72373;50.562;8.498;2023-10-13T08:42:35;18.70;99.90
23081;DHT22;72373;50.562;8.498;2023-10-13T08:45:08;18.90;99.90
23081;DHT22;72373;50.562;8.498;2023-10-13T08:47:50;18.90;99.90
23081;DHT22;72373;50.562;8.498;2023-10-13T08:50:23;18.90;99.90
23081;DHT22;72373;50.562;8.498;2023-10-13T08:53:08;19.00;99.90
23081;DHT22;72373;50.562;8.498;2023-10-13T08:55:59;19.10;99.90
23081;DHT22;72373;50.562;8.498;2023-10-13T08:58:48;19.20;99.90
23081;DHT22;72373;50.562;8.498;2023-10-13T09:01:21;19.30;99.90
23081;DHT22;72373;50.562;8.498;2023-10-13T09:04:13;19.40;99.90
23081;DHT22;72373;50.562;8.498;2023-10-13T09:06:45;19.60;99.90
23081;DHT22;72373;50.562;8.498;2023-10-13T09:09:13;19.60;99.90
23081;DHT22;72373;50.562;8.498;2023-10-13T09:11:57;19.80;99.90
23081;DHT22;72373;50.562;8.498;2023-10-13T09:14:38;19.90;99.90
23081;DHT22;72373;50.562;8.498;2023-10-13T09:17:09;20.20;99.90
23081;DHT22;72373;50.562;8.498;2023-10-13T09:19:51;20.50;99.90
23081;DHT22;72373;50.562;8.498;2023-10-13T09:22:23;20.80;99.90
23081;DHT22;72373;50.562;8.498;2023-10-13T09:25:02;21.00;99.90
23081;DHT22;72373;50.562;8.498;2023-10-13T09:27:31;21.30;99.90
23081;DHT22;72373;50.562;8.498;2023-10-13T09:30:03;21.50;99.90
23081;DHT22;72373;50.562;8.498;2023-10-13T09:32:44;21.70;99.90
23081;DHT22;72373;50.562;8.498;2023-10-13T09:35:17;21.80;99.90
23081;DHT22;72373;50.562;8.498;2023-10-13T09:37:44;22.00;99.90
23081;DHT22;72373;50.562;8.498;2023-10-13T09:40:17;22.20;99.90
23081;DHT22;72373;50.562;8.498;2023-10-13T09:42:58;22.40;99.90
23081;DHT22;72373;50.562;8.498;2023-10-13T09:45:34;23.10;99.90
23081;DHT22;72373;50.562;8.498;2023-10-13T09:48:11;24.00;99.90
23081;DHT22;72373;50.562;8.498;2023-10-13T09:50:47;24.50;99.90
23081;DHT22;72373;50.562;8.498;2023-10-13T09:53:16;24.80;99.90
23081;DHT22;72373;50.562;8.498;2023-10-13T09:58:53;24.70;99.90
23081;DHT22;72373;50.562;8.498;2023-10-13T10:01:25;24.50;99.90
23081;DHT22;72373;50.562;8.498;2023-10-13T10:04:10;24.70;99.90
23081;DHT22;72373;50.562;8.498;2023-10-13T10:06:52;25.30;99.90
23081;DHT22;72373;50.562;8.498;2023-10-13T10:09:17;26.10;99.90
23081;DHT22;72373;50.562;8.498;2023-10-13T10:17:28;29.40;99.90
23081;DHT22;72373;50.562;8.498;2023-10-13T10:19:55;30.40;99.90
23081;DHT22;72373;50.562;8.498;2023-10-13T10:22:28;30.60;99.90
23081;DHT22;72373;50.562;8.498;2023-10-13T10:25:03;30.20;99.90
23081;DHT22;72373;50.562;8.498;2023-10-13T10:27:30;30.60;99.90
23081;DHT22;72373;50.562;8.498;2023-10-13T10:29:57;30.00;99.90
23081;DHT22;72373;50.562;8.498;2023-10-13T10:32:36;28.60;99.90
23081;DHT22;72373;50.562;8.498;2023-10-13T10:35:10;27.50;99.90
23081;DHT22;72373;50.562;8.498;2023-10-13T10:37:46;26.30;99.90
23081;DHT22;72373;50.562;8.498;2023-10-13T10:40:18;25.30;99.90
23081;DHT22;72373;50.562;8.498;2023-10-13T10:43:12;24.60;99.90
23081;DHT22;72373;50.562;8.498;2023-10-13T10:45:46;24.10;99.90
23081;DHT22;72373;50.562;8.498;2023-10-13T10:48:12;23.60;99.90
23081;DHT22;72373;50.562;8.498;2023-10-13T10:50:50;23.20;99.90
23081;DHT22;72373;50.562;8.498;2023-10-13T10:53:22;23.20;99.90
23081;DHT22;72373;50.562;8.498;2023-10-13T10:55:48;23.00;99.90
23081;DHT22;72373;50.562;8.498;2023-10-13T10:58:13;22.90;99.90
23081;DHT22;72373;50.562;8.498;2023-10-13T11:01:07;22.80;99.90
23081;DHT22;72373;50.562;8.498;2023-10-13T11:03:37;22.70;99.90
23081;DHT22;72373;50.562;8.498;2023-10-13T11:06:11;22.70;99.90
23081;DHT22;72373;50.562;8.498;2023-10-13T11:08:42;22.60;99.90
23081;DHT22;72373;50.562;8.498;2023-10-13T11:11:09;22.60;99.90
23081;DHT22;72373;50.562;8.498;2023-10-13T11:13:44;22.40;99.90
23081;DHT22;72373;50.562;8.498;2023-10-13T11:16:36;22.10;99.90
23081;DHT22;72373;50.562;8.498;2023-10-13T11:19:04;22.20;99.90
23081;DHT22;72373;50.562;8.498;2023-10-13T11:21:32;22.10;99.90
23081;DHT22;72373;50.562;8.498;2023-10-13T11:23:58;22.00;99.90
23081;DHT22;72373;50.562;8.498;2023-10-13T11:26:35;22.10;99.90
23081;DHT22;72373;50.562;8.498;2023-10-13T11:29:05;22.10;99.90
23081;DHT22;72373;50.562;8.498;2023-10-13T11:31:35;22.10;99.90
23081;DHT22;72373;50.562;8.498;2023-10-13T11:34:03;22.10;99.90
23081;DHT22;72373;50.562;8.498;2023-10-13T11:36:31;21.80;99.90
23081;DHT22;72373;50.562;8.498;2023-10-13T11:38:58;22.10;99.90
23081;DHT22;72373;50.562;8.498;2023-10-13T11:41:23;22.10;99.90
23081;DHT22;72373;50.562;8.498;2023-10-13T11:43:50;22.10;99.90
23081;DHT22;72373;50.562;8.498;2023-10-13T11:46:24;22.20;99.90
23081;DHT22;72373;50.562;8.498;2023-10-13T11:49:02;22.30;99.90
23081;DHT22;72373;50.562;8.498;2023-10-13T11:51:47;22.50;99.90
23081;DHT22;72373;50.562;8.498;2023-10-13T11:54:20;22.60;99.90
23081;DHT22;72373;50.562;8.498;2023-10-13T11:56:48;22.80;99.90
23081;DHT22;72373;50.562;8.498;2023-10-13T11:59:15;22.90;99.90
23081;DHT22;72373;50.562;8.498;2023-10-13T12:01:47;23.10;99.90
23081;DHT22;72373;50.562;8.498;2023-10-13T12:04:32;23.50;99.90
23081;DHT22;72373;50.562;8.498;2023-10-13T12:06:58;23.80;99.90
23081;DHT22;72373;50.562;8.498;2023-10-13T12:09:48;23.90;99.90
23081;DHT22;72373;50.562;8.498;2023-10-13T12:12:20;24.10;99.90
23081;DHT22;72373;50.562;8.498;2023-10-13T12:14:46;24.20;99.90
23081;DHT22;72373;50.562;8.498;2023-10-13T12:17:18;24.30;99.90
23081;DHT22;72373;50.562;8.498;2023-10-13T12:19:51;24.30;99.90
23081;DHT22;72373;50.562;8.498;2023-10-13T12:22:17;24.20;99.90
23081;DHT22;72373;50.562;8.498;2023-10-13T12:24:52;24.10;99.90
23081;DHT22;72373;50.562;8.498;2023-10-13T12:27:21;23.90;99.90
23081;DHT22;72373;50.562;8.498;2023-10-13T12:30:00;23.80;99.90
23081;DHT22;72373;50.562;8.498;2023-10-13T12:32:33;23.70;99.90
23081;DHT22;72373;50.562;8.498;2023-10-13T12:35:00;23.60;99.90
23081;DHT22;72373;50.562;8.498;2023-10-13T12:37:27;23.40;99.90
23081;DHT22;72373;50.562;8.498;2023-10-13T12:40:13;23.40;99.90
23081;DHT22;72373;50.562;8.498;2023-10-13T12:42:57;23.30;99.90
23081;DHT22;72373;50.562;8.498;2023-10-13T12:45:42;23.30;99.90
23081;DHT22;72373;50.562;8.498;2023-10-13T12:48:28;23.30;99.90
23081;DHT22;72373;50.562;8.498;2023-10-13T12:51:12;23.20;99.90
23081;DHT22;72373;50.562;8.498;2023-10-13T12:53:56;23.10;99.90
23081;DHT22;72373;50.562;8.498;2023-10-13T12:56:31;22.90;99.90
23081;DHT22;72373;50.562;8.498;2023-10-13T12:58:56;23.00;99.90
23081;DHT22;72373;50.562;8.498;2023-10-13T13:01:23;23.00;99.90
23081;DHT22;72373;50.562;8.498;2023-10-13T13:03:53;23.00;99.90
23081;DHT22;72373;50.562;8.498;2023-10-13T13:06:23;23.10;99.90
23081;DHT22;72373;50.562;8.498;2023-10-13T13:08:53;23.00;99.90
23081;DHT22;72373;50.562;8.498;2023-10-13T13:11:19;23.10;99.90
23081;DHT22;72373;50.562;8.498;2023-10-13T13:13:45;23.00;99.90
23081;DHT22;72373;50.562;8.498;2023-10-13T13:16:14;23.00;99.90
23081;DHT22;72373;50.562;8.498;2023-10-13T13:18:40;23.00;99.90
23081;DHT22;72373;50.562;8.498;2023-10-13T13:21:06;23.00;99.90
23081;DHT22;72373;50.562;8.498;2023-10-13T13:23:32;23.10;99.90
23081;DHT22;72373;50.562;8.498;2023-10-13T13:26:00;23.10;99.90
23081;DHT22;72373;50.562;8.498;2023-10-13T13:28:26;23.20;99.90
23081;DHT22;72373;50.562;8.498;2023-10-13T13:30:55;23.30;99.90
23081;DHT22;72373;50.562;8.498;2023-10-13T13:33:20;23.30;99.90
23081;DHT22;72373;50.562;8.498;2023-10-13T13:35:57;23.50;99.90
23081;DHT22;72373;50.562;8.498;2023-10-13T13:40:54;23.50;99.90
23081;DHT22;72373;50.562;8.498;2023-10-13T13:43:24;23.60;99.90
23081;DHT22;72373;50.562;8.498;2023-10-13T13:46:08;24.00;99.90
23081;DHT22;72373;50.562;8.498;2023-10-13T13:48:38;23.70;99.90
23081;DHT22;72373;50.562;8.498;2023-10-13T13:51:07;23.80;99.90
23081;DHT22;72373;50.562;8.498;2023-10-13T13:53:48;23.80;99.90
23081;DHT22;72373;50.562;8.498;2023-10-13T13:56:15;23.80;99.90
23081;DHT22;72373;50.562;8.498;2023-10-13T13:58:50;23.70;99.90
23081;DHT22;72373;50.562;8.498;2023-10-13T14:01:16;23.70;99.90
23081;DHT22;72373;50.562;8.498;2023-10-13T14:03:46;23.70;99.90
23081;DHT22;72373;50.562;8.498;2023-10-13T14:06:13;23.90;99.90
23081;DHT22;72373;50.562;8.498;2023-10-13T14:08:44;24.00;99.90
23081;DHT22;72373;50.562;8.498;2023-10-13T14:11:10;24.10;99.90
23081;DHT22;72373;50.562;8.498;2023-10-13T14:13:39;24.10;99.90
23081;DHT22;72373;50.562;8.498;2023-10-13T14:16:19;24.10;99.90
23081;DHT22;72373;50.562;8.498;2023-10-13T14:18:48;24.10;99.90
23081;DHT22;72373;50.562;8.498;2023-10-13T14:21:14;24.10;99.90
23081;DHT22;72373;50.562;8.498;2023-10-13T14:23:50;24.10;99.90
23081;DHT22;72373;50.562;8.498;2023-10-13T14:26:17;24.10;99.90
23081;DHT22;72373;50.562;8.498;2023-10-13T14:28:52;24.00;99.90
23081;DHT22;72373;50.562;8.498;2023-10-13T14:31:29;23.90;99.90
23081;DHT22;72373;50.562;8.498;2023-10-13T14:33:56;23.90;99.90
23081;DHT22;72373;50.562;8.498;2023-10-13T14:36:24;23.60;99.90
23081;DHT22;72373;50.562;8.498;2023-10-13T14:38:54;23.70;99.90
23081;DHT22;72373;50.562;8.498;2023-10-13T14:41:20;23.80;99.90
23081;DHT22;72373;50.562;8.498;2023-10-13T14:43:46;23.80;99.90
23081;DHT22;72373;50.562;8.498;2023-10-13T14:48:44;23.70;99.90
23081;DHT22;72373;50.562;8.498;2023-10-13T14:51:12;23.70;99.90
23081;DHT22;72373;50.562;8.498;2023-10-13T14:53:46;23.70;99.90
23081;DHT22;72373;50.562;8.498;2023-10-13T14:56:12;23.70;99.90
23081;DHT22;72373;50.562;8.498;2023-10-13T14:58:39;23.70;99.90
23081;DHT22;72373;50.562;8.498;2023-10-13T15:01:17;23.60;99.90
23081;DHT22;72373;50.562;8.498;2023-10-13T15:03:43;23.60;99.90
23081;DHT22;72373;50.562;8.498;2023-10-13T15:06:18;23.50;99.90
23081;DHT22;72373;50.562;8.498;2023-10-13T15:08:46;23.50;99.90
23081;DHT22;72373;50.562;8.498;2023-10-13T15:11:12;23.50;99.90
23081;DHT22;72373;50.562;8.498;2023-10-13T15:13:41;23.50;99.90
23081;DHT22;72373;50.562;8.498;2023-10-13T15:16:20;23.40;99.90
23081;DHT22;72373;50.562;8.498;2023-10-13T15:18:47;23.40;99.90
23081;DHT22;72373;50.562;8.498;2023-10-13T15:21:23;23.30;99.90
23081;DHT22;72373;50.562;8.498;2023-10-13T15:23:54;23.30;99.90
23081;DHT22;72373;50.562;8.498;2023-10-13T15:26:24;23.50;99.90
23081;DHT22;72373;50.562;8.498;2023-10-13T15:28:50;23.20;99.90
23081;DHT22;72373;50.562;8.498;2023-10-13T15:31:21;23.20;99.90
23081;DHT22;72373;50.562;8.498;2023-10-13T15:33:51;23.10;99.90
23081;DHT22;72373;50.562;8.498;2023-10-13T15:36:23;23.00;99.90
23081;DHT22;72373;50.562;8.498;2023-10-13T15:38:52;22.90;99.90
23081;DHT22;72373;50.562;8.498;2023-10-13T15:41:21;22.80;99.90
23081;DHT22;72373;50.562;8.498;2023-10-13T15:43:47;22.80;99.90
23081;DHT22;72373;50.562;8.498;2023-10-13T15:46:19;22.70;99.90
23081;DHT22;72373;50.562;8.498;2023-10-13T15:48:49;22.60;99.90
23081;DHT22;72373;50.562;8.498;2023-10-13T15:51:14;22.50;99.90
23081;DHT22;72373;50.562;8.498;2023-10-13T15:53:42;22.40;99.90
23081;DHT22;72373;50.562;8.498;2023-10-13T15:56:09;22.40;99.90
23081;DHT22;72373;50.562;8.498;2023-10-13T15:58:41;22.30;99.90
23081;DHT22;72373;50.562;8.498;2023-10-13T16:01:09;22.20;99.90
23081;DHT22;72373;50.562;8.498;2023-10-13T16:06:12;22.00;99.90
23081;DHT22;72373;50.562;8.498;2023-10-13T16:08:41;21.90;99.90
23081;DHT22;72373;50.562;8.498;2023-10-13T16:11:14;21.80;99.90
23081;DHT22;72373;50.562;8.498;2023-10-13T16:13:40;21.80;99.90
23081;DHT22;72373;50.562;8.498;2023-10-13T16:16:20;21.60;99.90
23081;DHT22;72373;50.562;8.498;2023-10-13T16:18:52;21.60;99.90
23081;DHT22;72373;50.562;8.498;2023-10-13T16:21:19;21.50;99.90
23081;DHT22;72373;50.562;8.498;2023-10-13T16:23:46;21.40;99.90
23081;DHT22;72373;50.562;8.498;2023-10-13T16:26:14;21.30;99.90
23081;DHT22;72373;50.562;8.498;2023-10-13T16:28:39;21.20;99.90
23081;DHT22;72373;50.562;8.498;2023-10-13T16:31:06;21.10;99.90
23081;DHT22;72373;50.562;8.498;2023-10-13T16:33:33;21.00;99.90
23081;DHT22;72373;50.562;8.498;2023-10-13T16:36:01;20.90;99.90